Time;durP1;ratioP1;P1;durP2;ratioP2;P2;SDS_P1;SDS_P2;PMS_P1;PMS_P2;Temp;Humidity;BMP_temperature;BMP_pressure;BME280_temperature;BME280_humidity;BME280_pressure;Samples;Min_cycle;Max_cycle;Signal;HPM_P1;HPM_P2
2022/11/14 00:01:04;;;;;;;;;;;4.30;99.90;;;;;;5003318;28;20127;-74
2022/11/14 00:03:54;;;;;;;;;;;4.30;99.90;;;;;;5008318;28;19931;-74
2022/11/14 00:06:44;;;;;;;;;;;4.40;99.90;;;;;;5020919;28;20018;-75
2022/11/14 00:09:37;;;;;;;;;;;4.40;99.90;;;;;;5007353;28;19932;-74
2022/11/14 00:12:27;;;;;;;;;;;4.40;99.90;;;;;;5008581;28;20019;-73
2022/11/14 00:15:17;;;;;;;;;;;4.40;99.90;;;;;;5006558;28;19933;-73
2022/11/14 00:18:03;;;;;;;;;;;4.40;99.90;;;;;;5020017;28;20064;-73
2022/11/14 00:20:48;;;;;;;;;;;4.50;99.90;;;;;;5010746;28;19952;-73
2022/11/14 00:23:38;;;;;;;;;;;4.50;99.90;;;;;;5008315;28;19936;-73
2022/11/14 00:26:24;;;;;;;;;;;4.50;99.90;;;;;;5007617;28;19933;-73
2022/11/14 00:29:14;;;;;;;;;;;4.50;99.90;;;;;;5005456;28;19932;-73
2022/11/14 00:32:04;;;;;;;;;;;4.50;99.90;;;;;;5009339;28;19933;-74
2022/11/14 00:34:54;;;;;;;;;;;4.40;99.90;;;;;;5007949;28;19980;-73
2022/11/14 00:37:45;;;;;;;;;;;4.40;99.90;;;;;;5020606;28;19956;-74
2022/11/14 00:40:35;;;;;;;;;;;4.30;99.90;;;;;;5010036;28;19933;-75
2022/11/14 00:43:25;;;;;;;;;;;4.30;99.90;;;;;;5014873;28;19932;-73
2022/11/14 00:46:11;;;;;;;;;;;4.30;99.90;;;;;;5009374;28;20014;-72
2022/11/14 00:49:01;;;;;;;;;;;4.30;99.90;;;;;;5021895;28;19936;-72
2022/11/14 00:51:51;;;;;;;;;;;4.30;99.90;;;;;;5009408;28;19937;-74
2022/11/14 00:54:41;;;;;;;;;;;4.30;99.90;;;;;;5006780;28;20339;-74
2022/11/14 00:57:31;;;;;;;;;;;4.30;99.90;;;;;;5009369;28;19937;-74
2022/11/14 01:00:16;;;;;;;;;;;4.30;99.90;;;;;;5023482;28;20391;-73
2022/11/14 01:03:06;;;;;;;;;;;4.30;99.90;;;;;;5007493;28;20474;-73
2022/11/14 01:05:56;;;;;;;;;;;4.30;99.90;;;;;;5014385;28;20359;-74
2022/11/14 01:08:48;;;;;;;;;;;4.40;99.90;;;;;;5014728;28;19940;-74
2022/11/14 01:11:34;;;;;;;;;;;4.40;99.90;;;;;;5027542;28;20329;-75
2022/11/14 01:14:24;;;;;;;;;;;4.50;99.90;;;;;;5016894;28;19940;-74
2022/11/14 01:17:14;;;;;;;;;;;4.40;99.90;;;;;;5010202;28;19936;-74
2022/11/14 01:20:05;;;;;;;;;;;4.40;99.90;;;;;;5013193;28;19932;-73
2022/11/14 01:22:55;;;;;;;;;;;4.40;99.90;;;;;;5012542;28;20390;-75
2022/11/14 01:25:45;;;;;;;;;;;4.40;99.90;;;;;;5012902;28;19933;-74
2022/11/14 01:28:36;;;;;;;;;;;4.40;99.90;;;;;;5024514;28;20014;-74
2022/11/14 01:31:22;;;;;;;;;;;4.40;99.90;;;;;;5013998;28;19932;-75
2022/11/14 01:34:12;;;;;;;;;;;4.40;99.90;;;;;;5012894;28;20473;-73
2022/11/14 01:36:57;;;;;;;;;;;4.30;99.90;;;;;;5020106;28;19932;-73
2022/11/14 01:39:47;;;;;;;;;;;4.30;99.90;;;;;;5025184;28;19956;-74
2022/11/14 01:42:37;;;;;;;;;;;4.30;99.90;;;;;;5023706;28;20437;-75
2022/11/14 01:45:41;;;;;;;;;;;4.20;99.90;;;;;;5025953;28;19940;-74
2022/11/14 01:48:30;;;;;;;;;;;4.20;99.90;;;;;;5006506;28;19940;-76
2022/11/14 01:51:27;;;;;;;;;;;4.20;99.90;;;;;;5025990;28;19932;-73
2022/11/14 01:54:23;;;;;;;;;;;4.20;99.90;;;;;;5012394;28;19948;-73
2022/11/14 01:57:08;;;;;;;;;;;4.20;99.90;;;;;;5011902;28;19948;-74
2022/11/14 02:00:02;;;;;;;;;;;4.20;99.90;;;;;;5010115;28;19960;-75
2022/11/14 02:02:53;;;;;;;;;;;4.20;99.90;;;;;;5007767;28;19932;-75
2022/11/14 02:05:45;;;;;;;;;;;4.30;99.90;;;;;;5012093;28;19936;-75
2022/11/14 02:08:31;;;;;;;;;;;4.30;99.90;;;;;;5010821;28;20007;-73
2022/11/14 02:11:21;;;;;;;;;;;4.30;99.90;;;;;;5010761;28;19936;-73
2022/11/14 02:14:06;;;;;;;;;;;4.30;99.90;;;;;;5020861;28;19932;-75
2022/11/14 02:16:56;;;;;;;;;;;4.20;99.90;;;;;;5008264;28;20636;-76
2022/11/14 02:19:43;;;;;;;;;;;4.30;99.90;;;;;;5018826;28;19932;-73
2022/11/14 02:22:33;;;;;;;;;;;4.30;99.90;;;;;;5012731;28;20306;-74
2022/11/14 02:25:24;;;;;;;;;;;4.30;99.90;;;;;;5023262;28;19936;-73
2022/11/14 02:28:14;;;;;;;;;;;4.30;99.90;;;;;;5018397;28;19959;-73
2022/11/14 02:30:59;;;;;;;;;;;4.30;99.90;;;;;;5011109;28;20056;-72
2022/11/14 02:33:49;;;;;;;;;;;4.30;99.90;;;;;;5012772;28;19941;-73
2022/11/14 02:36:34;;;;;;;;;;;4.40;99.90;;;;;;5024124;28;20064;-73
2022/11/14 02:39:19;;;;;;;;;;;4.40;99.90;;;;;;5024527;28;20048;-73
2022/11/14 02:42:05;;;;;;;;;;;4.40;99.90;;;;;;5020688;28;19932;-73
2022/11/14 02:44:55;;;;;;;;;;;4.40;99.90;;;;;;5008764;28;19932;-73
2022/11/14 02:47:45;;;;;;;;;;;4.40;99.90;;;;;;5020348;28;19936;-73
2022/11/14 02:50:35;;;;;;;;;;;4.40;99.90;;;;;;5020165;28;20056;-74
2022/11/14 02:53:25;;;;;;;;;;;4.40;99.90;;;;;;5021336;28;19983;-75
2022/11/14 02:56:16;;;;;;;;;;;4.50;99.90;;;;;;5007247;28;19936;-73
2022/11/14 02:59:06;;;;;;;;;;;4.50;99.90;;;;;;5008454;28;19931;-74
2022/11/14 03:01:56;;;;;;;;;;;4.50;99.90;;;;;;5010893;28;19933;-74
2022/11/14 03:04:46;;;;;;;;;;;4.50;99.90;;;;;;5005192;28;20063;-74
2022/11/14 03:07:31;;;;;;;;;;;4.50;99.90;;;;;;5008138;28;19931;-74
2022/11/14 03:10:22;;;;;;;;;;;4.60;99.90;;;;;;5011266;28;19936;-73
2022/11/14 03:13:12;;;;;;;;;;;4.50;99.90;;;;;;5009869;28;19932;-74
2022/11/14 03:16:06;;;;;;;;;;;4.60;99.90;;;;;;5010215;28;19932;-74
2022/11/14 03:18:57;;;;;;;;;;;4.60;99.90;;;;;;5008593;28;20039;-72
2022/11/14 03:21:47;;;;;;;;;;;4.60;99.90;;;;;;5011498;28;20019;-73
2022/11/14 03:24:37;;;;;;;;;;;4.60;99.90;;;;;;5015207;28;19976;-75
2022/11/14 03:27:22;;;;;;;;;;;4.50;99.90;;;;;;5009919;28;20439;-75
2022/11/14 03:30:09;;;;;;;;;;;4.50;99.90;;;;;;5009723;28;20014;-73
2022/11/14 03:32:59;;;;;;;;;;;4.50;99.90;;;;;;5009715;28;19933;-74
2022/11/14 03:35:44;;;;;;;;;;;4.60;99.90;;;;;;5010124;28;19979;-74
2022/11/14 03:38:35;;;;;;;;;;;4.60;99.90;;;;;;5007903;28;19933;-74
2022/11/14 03:41:25;;;;;;;;;;;4.60;99.90;;;;;;5017941;28;19957;-73
2022/11/14 03:44:15;;;;;;;;;;;4.60;99.90;;;;;;5020002;28;19936;-73
2022/11/14 03:47:05;;;;;;;;;;;4.60;99.90;;;;;;5003537;28;19932;-73
2022/11/14 03:49:55;;;;;;;;;;;4.60;99.90;;;;;;5022496;28;20813;-74
2022/11/14 03:52:41;;;;;;;;;;;4.60;99.90;;;;;;5009403;28;19952;-72
2022/11/14 03:55:31;;;;;;;;;;;4.50;99.90;;;;;;5008561;28;20060;-74
2022/11/14 03:58:21;;;;;;;;;;;4.40;99.90;;;;;;5014597;28;20067;-74
2022/11/14 04:01:06;;;;;;;;;;;4.40;99.90;;;;;;5021092;28;19933;-75
2022/11/14 04:03:56;;;;;;;;;;;4.40;99.90;;;;;;5009590;28;19996;-76
2022/11/14 04:06:41;;;;;;;;;;;4.40;99.90;;;;;;5009111;28;19936;-75
2022/11/14 04:09:27;;;;;;;;;;;4.40;99.90;;;;;;5007593;28;20389;-75
2022/11/14 04:12:17;;;;;;;;;;;4.40;99.90;;;;;;5008614;28;19936;-74
2022/11/14 04:15:08;;;;;;;;;;;4.40;99.90;;;;;;5009408;28;20541;-74
2022/11/14 04:17:58;;;;;;;;;;;4.40;99.90;;;;;;5022752;28;19931;-74
2022/11/14 04:20:48;;;;;;;;;;;4.40;99.90;;;;;;5007904;28;20307;-73
2022/11/14 04:23:38;;;;;;;;;;;4.50;99.90;;;;;;5005173;28;19937;-73
2022/11/14 04:26:28;;;;;;;;;;;4.50;99.90;;;;;;5009400;28;19932;-75
2022/11/14 04:29:13;;;;;;;;;;;4.40;99.90;;;;;;5008405;28;19941;-74
2022/11/14 04:32:03;;;;;;;;;;;4.40;99.90;;;;;;5018127;28;19936;-74
2022/11/14 04:34:48;;;;;;;;;;;4.40;99.90;;;;;;5007996;28;19932;-75
2022/11/14 04:37:38;;;;;;;;;;;4.40;99.90;;;;;;5007865;28;20530;-73
2022/11/14 04:40:24;;;;;;;;;;;4.40;99.90;;;;;;5022988;28;19932;-75
2022/11/14 04:43:14;;;;;;;;;;;4.40;99.90;;;;;;5008410;28;20015;-75
2022/11/14 04:45:59;;;;;;;;;;;4.40;99.90;;;;;;5021480;28;19956;-75
2022/11/14 04:48:49;;;;;;;;;;;4.50;99.90;;;;;;5010272;28;19932;-75
2022/11/14 04:51:34;;;;;;;;;;;4.50;99.90;;;;;;5014790;28;20040;-75
2022/11/14 04:54:24;;;;;;;;;;;4.50;99.90;;;;;;5021641;28;20386;-75
2022/11/14 04:57:16;;;;;;;;;;;4.50;99.90;;;;;;5022321;28;20399;-75
2022/11/14 05:00:06;;;;;;;;;;;4.50;99.90;;;;;;5014855;28;20080;-75
2022/11/14 05:02:52;;;;;;;;;;;4.40;99.90;;;;;;5005427;28;19940;-75
2022/11/14 05:05:42;;;;;;;;;;;4.40;99.90;;;;;;5008181;28;19932;-74
2022/11/14 05:08:32;;;;;;;;;;;4.40;99.90;;;;;;4998855;28;20504;-75
2022/11/14 05:11:22;;;;;;;;;;;4.40;99.90;;;;;;5008619;28;20034;-75
2022/11/14 05:14:07;;;;;;;;;;;4.50;99.90;;;;;;5005677;28;19935;-74
2022/11/14 05:16:57;;;;;;;;;;;4.50;99.90;;;;;;5009930;28;19932;-74
2022/11/14 05:19:48;;;;;;;;;;;4.50;99.90;;;;;;5020252;28;20010;-75
2022/11/14 05:22:38;;;;;;;;;;;4.60;99.90;;;;;;5010332;28;19932;-74
2022/11/14 05:25:28;;;;;;;;;;;4.60;99.90;;;;;;5019577;28;19932;-74
2022/11/14 05:28:18;;;;;;;;;;;4.60;99.90;;;;;;5022203;28;20043;-73
2022/11/14 05:31:11;;;;;;;;;;;4.60;99.90;;;;;;5019548;28;19932;-74
2022/11/14 05:34:01;;;;;;;;;;;4.60;99.90;;;;;;5006077;28;19932;-74
2022/11/14 05:36:51;;;;;;;;;;;4.60;99.90;;;;;;5005718;28;20288;-74
2022/11/14 05:39:41;;;;;;;;;;;4.60;99.90;;;;;;5007859;28;19935;-74
2022/11/14 05:42:31;;;;;;;;;;;4.60;99.90;;;;;;5004314;28;20295;-73
2022/11/14 05:45:16;;;;;;;;;;;4.70;99.90;;;;;;5007098;28;20003;-74
2022/11/14 05:48:06;;;;;;;;;;;4.70;99.90;;;;;;5020148;28;19931;-75
2022/11/14 05:50:59;;;;;;;;;;;4.70;99.90;;;;;;5014702;28;19940;-74
2022/11/14 05:53:49;;;;;;;;;;;4.70;99.90;;;;;;5010126;28;20048;-74
2022/11/14 05:56:34;;;;;;;;;;;4.70;99.90;;;;;;5007939;28;19940;-73
2022/11/14 05:59:20;;;;;;;;;;;4.60;99.90;;;;;;5011436;28;19932;-74
2022/11/14 06:02:10;;;;;;;;;;;4.60;99.90;;;;;;5009479;28;20100;-74
2022/11/14 06:05:00;;;;;;;;;;;4.50;99.90;;;;;;5017929;28;19933;-73
2022/11/14 06:07:57;;;;;;;;;;;4.50;99.90;;;;;;5008709;28;19933;-74
2022/11/14 06:10:43;;;;;;;;;;;4.40;99.90;;;;;;5008805;28;19944;-74
2022/11/14 06:13:33;;;;;;;;;;;4.40;99.90;;;;;;5003124;28;20065;-73
2022/11/14 06:16:24;;;;;;;;;;;4.40;99.90;;;;;;5006262;28;19937;-73
2022/11/14 06:19:14;;;;;;;;;;;4.40;99.90;;;;;;5007859;28;19941;-73
2022/11/14 06:22:04;;;;;;;;;;;4.30;99.90;;;;;;5006456;28;19936;-74
2022/11/14 06:24:54;;;;;;;;;;;4.30;99.90;;;;;;5003923;28;20469;-74
2022/11/14 06:27:44;;;;;;;;;;;4.30;99.90;;;;;;4999013;28;20073;-74
2022/11/14 06:30:34;;;;;;;;;;;4.30;99.90;;;;;;5005796;28;20729;-74
2022/11/14 06:33:28;;;;;;;;;;;4.30;99.90;;;;;;5007508;28;19937;-75
2022/11/14 06:36:14;;;;;;;;;;;4.30;99.90;;;;;;5006633;28;19932;-74
2022/11/14 06:39:05;;;;;;;;;;;4.30;99.90;;;;;;5009164;28;19983;-76
2022/11/14 06:41:55;;;;;;;;;;;4.30;99.90;;;;;;5006636;28;19937;-74
2022/11/14 06:44:45;;;;;;;;;;;4.30;99.90;;;;;;5005379;28;19932;-75
2022/11/14 06:47:35;;;;;;;;;;;4.20;99.90;;;;;;5007791;28;19993;-75
2022/11/14 06:50:20;;;;;;;;;;;4.20;99.90;;;;;;5010927;28;20395;-75
2022/11/14 06:53:05;;;;;;;;;;;4.30;99.90;;;;;;5020021;28;19932;-74
2022/11/14 06:56:00;;;;;;;;;;;4.60;99.90;;;;;;4999161;28;20386;-74
2022/11/14 06:58:46;;;;;;;;;;;4.70;99.90;;;;;;5003843;28;19940;-75
2022/11/14 07:01:37;;;;;;;;;;;4.60;99.90;;;;;;5012913;28;19932;-74
2022/11/14 07:04:27;;;;;;;;;;;4.50;99.90;;;;;;5009468;28;20465;-74
2022/11/14 07:07:12;;;;;;;;;;;4.40;99.90;;;;;;5008330;28;20039;-74
2022/11/14 07:09:57;;;;;;;;;;;4.30;99.90;;;;;;5008181;28;19936;-75
2022/11/14 07:12:47;;;;;;;;;;;4.20;99.90;;;;;;5023793;28;19932;-74
2022/11/14 07:15:37;;;;;;;;;;;4.20;99.90;;;;;;5003935;28;19932;-75
2022/11/14 07:18:28;;;;;;;;;;;4.10;99.90;;;;;;5019752;28;20060;-75
2022/11/14 07:21:18;;;;;;;;;;;4.00;99.90;;;;;;5007247;28;19931;-75
2022/11/14 07:24:09;;;;;;;;;;;4.00;99.90;;;;;;5021904;28;20450;-75
2022/11/14 07:27:00;;;;;;;;;;;4.00;99.90;;;;;;5006872;28;20478;-75
2022/11/14 07:29:51;;;;;;;;;;;4.00;99.90;;;;;;4998455;28;19939;-74
2022/11/14 07:32:41;;;;;;;;;;;4.00;99.90;;;;;;5000689;28;19932;-76
2022/11/14 07:35:31;;;;;;;;;;;4.10;99.90;;;;;;5018569;28;20022;-75
2022/11/14 07:38:21;;;;;;;;;;;4.10;99.90;;;;;;5002562;28;20066;-74
2022/11/14 07:41:08;;;;;;;;;;;4.10;99.90;;;;;;5023984;28;20290;-74
2022/11/14 07:43:58;;;;;;;;;;;4.20;99.90;;;;;;4999635;28;19974;-74
2022/11/14 07:46:50;;;;;;;;;;;4.20;99.90;;;;;;5014446;28;20307;-75
2022/11/14 07:49:40;;;;;;;;;;;4.30;99.90;;;;;;5020862;28;19932;-75
2022/11/14 07:52:31;;;;;;;;;;;4.30;99.90;;;;;;5021262;28;19947;-74
2022/11/14 07:55:21;;;;;;;;;;;4.30;99.90;;;;;;5005583;28;20382;-74
2022/11/14 07:58:07;;;;;;;;;;;4.40;99.90;;;;;;5023026;28;20395;-74
2022/11/14 08:00:52;;;;;;;;;;;4.40;99.90;;;;;;5007402;28;19948;-75
2022/11/14 08:03:43;;;;;;;;;;;4.40;99.90;;;;;;5008408;28;20022;-75
2022/11/14 08:06:28;;;;;;;;;;;4.40;99.90;;;;;;5003891;28;19933;-74
2022/11/14 08:09:13;;;;;;;;;;;4.50;99.90;;;;;;5021316;28;19936;-74
2022/11/14 08:12:03;;;;;;;;;;;4.60;99.90;;;;;;5008260;28;20398;-74
2022/11/14 08:14:53;;;;;;;;;;;4.60;99.90;;;;;;5006636;28;19949;-75
2022/11/14 08:17:38;;;;;;;;;;;4.70;99.90;;;;;;5006562;28;19980;-75
2022/11/14 08:20:29;;;;;;;;;;;4.60;99.90;;;;;;5010397;28;19932;-73
2022/11/14 08:23:14;;;;;;;;;;;4.70;99.90;;;;;;5010313;28;19932;-73
2022/11/14 08:26:04;;;;;;;;;;;4.70;99.90;;;;;;5010777;28;19998;-74
2022/11/14 08:28:53;;;;;;;;;;;4.80;99.90;;;;;;5013651;28;20038;-75
2022/11/14 08:31:44;;;;;;;;;;;4.80;99.90;;;;;;5021121;28;19992;-74
2022/11/14 08:34:35;;;;;;;;;;;4.80;99.90;;;;;;5009749;28;19936;-74
2022/11/14 08:37:25;;;;;;;;;;;4.80;99.90;;;;;;5006330;28;20284;-77
2022/11/14 08:40:16;;;;;;;;;;;4.70;99.90;;;;;;5011606;28;20323;-75
2022/11/14 08:43:06;;;;;;;;;;;4.80;99.90;;;;;;5018014;28;20015;-74
2022/11/14 08:46:00;;;;;;;;;;;4.90;99.90;;;;;;5010644;28;19941;-74
2022/11/14 08:48:50;;;;;;;;;;;5.00;99.90;;;;;;5021419;28;19941;-74
2022/11/14 08:51:40;;;;;;;;;;;5.00;99.90;;;;;;5008568;28;19932;-74
2022/11/14 08:54:31;;;;;;;;;;;5.10;99.90;;;;;;5018373;28;19940;-74
2022/11/14 08:57:21;;;;;;;;;;;5.20;99.90;;;;;;5009961;28;20030;-74
2022/11/14 09:00:11;;;;;;;;;;;5.20;99.90;;;;;;5016328;28;19936;-74
2022/11/14 09:03:09;;;;;;;;;;;5.30;99.90;;;;;;5006633;28;19936;-74
2022/11/14 09:05:54;;;;;;;;;;;5.30;99.90;;;;;;5023063;28;19932;-74
2022/11/14 09:08:44;;;;;;;;;;;5.40;99.90;;;;;;5008851;28;19948;-73
2022/11/14 09:11:34;;;;;;;;;;;5.40;99.90;;;;;;5003234;28;19940;-76
2022/11/14 09:14:24;;;;;;;;;;;5.50;99.90;;;;;;5006088;28;20076;-75
2022/11/14 09:17:14;;;;;;;;;;;5.60;99.90;;;;;;5008949;28;19983;-74
2022/11/14 09:20:05;;;;;;;;;;;5.70;99.90;;;;;;5011562;28;20022;-74
2022/11/14 09:22:59;;;;;;;;;;;5.80;99.90;;;;;;5019416;28;19940;-74
2022/11/14 09:25:49;;;;;;;;;;;5.80;99.90;;;;;;5013865;28;19980;-74
2022/11/14 09:28:35;;;;;;;;;;;6.00;99.90;;;;;;5026686;28;19932;-75
2022/11/14 09:31:25;;;;;;;;;;;6.10;99.90;;;;;;5013554;28;19937;-75
2022/11/14 09:34:15;;;;;;;;;;;6.20;99.90;;;;;;5008356;28;19940;-77
2022/11/14 09:37:05;;;;;;;;;;;6.10;99.90;;;;;;4992880;28;20354;-74
2022/11/14 09:39:50;;;;;;;;;;;6.20;99.90;;;;;;5013705;28;20430;-76
2022/11/14 09:42:52;;;;;;;;;;;6.30;99.90;;;;;;5020437;28;20039;-75
2022/11/14 09:45:46;;;;;;;;;;;6.40;99.90;;;;;;5012225;28;19940;-74
2022/11/14 09:48:37;;;;;;;;;;;6.40;99.90;;;;;;5011295;28;19984;-72
2022/11/14 09:51:29;;;;;;;;;;;6.50;99.90;;;;;;5024587;28;20406;-73
2022/11/14 09:54:21;;;;;;;;;;;6.60;99.90;;;;;;5009571;28;20023;-74
2022/11/14 09:57:12;;;;;;;;;;;6.50;99.90;;;;;;5009176;28;19936;-74
2022/11/14 09:59:57;;;;;;;;;;;6.50;99.90;;;;;;5007892;28;20418;-74
2022/11/14 10:02:49;;;;;;;;;;;6.50;99.90;;;;;;5009527;28;19933;-75
2022/11/14 10:05:51;;;;;;;;;;;6.60;99.90;;;;;;5022812;28;19932;-74
2022/11/14 10:08:54;;;;;;;;;;;6.60;99.90;;;;;;5011012;28;19932;-74
2022/11/14 10:11:46;;;;;;;;;;;6.70;99.90;;;;;;5011866;28;19932;-76
2022/11/14 10:14:48;;;;;;;;;;;6.80;99.90;;;;;;5019994;28;19932;-75
2022/11/14 10:17:38;;;;;;;;;;;6.80;99.90;;;;;;5012411;28;19936;-75
2022/11/14 10:20:43;;;;;;;;;;;6.90;99.90;;;;;;5012264;28;19976;-75
2022/11/14 10:23:47;;;;;;;;;;;6.90;99.90;;;;;;5022252;28;19948;-74
2022/11/14 10:26:41;;;;;;;;;;;7.10;99.90;;;;;;5015404;28;19933;-74
2022/11/14 10:29:26;;;;;;;;;;;7.20;99.90;;;;;;5012561;28;19932;-74
2022/11/14 10:32:14;;;;;;;;;;;7.30;99.90;;;;;;5007026;28;19948;-73
2022/11/14 10:34:59;;;;;;;;;;;7.40;99.90;;;;;;5009011;28;20018;-75
2022/11/14 10:37:59;;;;;;;;;;;7.50;99.90;;;;;;5010777;28;19940;-74
2022/11/14 10:40:49;;;;;;;;;;;7.60;99.90;;;;;;5025151;28;19941;-76
2022/11/14 10:43:42;;;;;;;;;;;7.80;99.90;;;;;;5016271;28;19939;-75
2022/11/14 10:46:35;;;;;;;;;;;7.90;99.90;;;;;;5010396;28;19960;-76
2022/11/14 10:49:22;;;;;;;;;;;8.00;99.90;;;;;;5009074;28;19932;-74
2022/11/14 10:52:13;;;;;;;;;;;8.10;99.90;;;;;;5010796;28;20052;-75
2022/11/14 10:55:06;;;;;;;;;;;8.30;99.90;;;;;;5008809;28;19933;-75
2022/11/14 10:57:51;;;;;;;;;;;8.40;99.90;;;;;;5005761;28;19937;-72
2022/11/14 11:00:41;;;;;;;;;;;8.50;99.90;;;;;;5014920;28;20088;-74
2022/11/14 11:03:42;;;;;;;;;;;8.60;99.90;;;;;;5005235;28;20514;-73
2022/11/14 11:06:32;;;;;;;;;;;8.80;99.90;;;;;;5010841;28;20019;-75
2022/11/14 11:12:35;;;;;;;;;;;9.10;99.90;;;;;;5013050;28;19932;-74
2022/11/14 11:15:30;;;;;;;;;;;9.30;99.90;;;;;;5009365;28;20307;-73
2022/11/14 11:18:31;;;;;;;;;;;9.50;99.90;;;;;;5020059;28;19932;-75
2022/11/14 11:21:18;;;;;;;;;;;9.50;99.90;;;;;;4993756;28;20403;-73
2022/11/14 11:24:03;;;;;;;;;;;9.60;99.90;;;;;;5008735;28;20055;-75
2022/11/14 11:27:08;;;;;;;;;;;9.60;99.90;;;;;;5011580;28;20081;-75
2022/11/14 11:30:03;;;;;;;;;;;9.60;99.90;;;;;;5012941;28;19976;-73
2022/11/14 11:32:53;;;;;;;;;;;9.60;99.90;;;;;;5009270;28;20299;-73
2022/11/14 11:35:44;;;;;;;;;;;9.60;99.90;;;;;;5012798;28;19932;-72
2022/11/14 11:38:34;;;;;;;;;;;9.70;99.90;;;;;;4995515;28;20656;-73
2022/11/14 11:41:27;;;;;;;;;;;9.70;99.90;;;;;;5007169;28;19933;-73
2022/11/14 11:44:18;;;;;;;;;;;9.70;99.90;;;;;;5006485;28;19936;-71
2022/11/14 11:47:07;;;;;;;;;;;9.70;99.90;;;;;;5005652;28;19933;-72
2022/11/14 11:49:53;;;;;;;;;;;9.70;99.90;;;;;;5006828;28;19936;-73
2022/11/14 11:52:41;;;;;;;;;;;9.70;99.90;;;;;;5006041;28;19932;-73
2022/11/14 11:55:32;;;;;;;;;;;9.70;99.90;;;;;;5007433;28;19932;-73
2022/11/14 11:58:36;;;;;;;;;;;9.80;99.90;;;;;;5007469;28;19944;-74
2022/11/14 12:01:21;;;;;;;;;;;9.90;99.90;;;;;;5021637;28;19937;-75
2022/11/14 12:04:06;;;;;;;;;;;9.90;99.90;;;;;;5005962;28;19936;-73
2022/11/14 12:07:11;;;;;;;;;;;10.00;99.90;;;;;;4999851;28;21049;-72
2022/11/14 12:10:06;;;;;;;;;;;10.00;99.90;;;;;;5006251;28;19932;-73
2022/11/14 12:13:06;;;;;;;;;;;10.10;99.90;;;;;;5005828;28;19941;-76
2022/11/14 12:16:10;;;;;;;;;;;10.20;99.90;;;;;;5008719;28;20003;-73
2022/11/14 12:19:14;;;;;;;;;;;10.30;99.90;;;;;;5007634;28;20044;-74
2022/11/14 12:22:19;;;;;;;;;;;10.50;99.90;;;;;;5005475;28;20036;-75
2022/11/14 12:25:04;;;;;;;;;;;10.60;99.90;;;;;;5004632;28;20080;-74
2022/11/14 12:28:08;;;;;;;;;;;10.70;99.90;;;;;;5008465;28;20008;-76
2022/11/14 12:31:01;;;;;;;;;;;10.80;99.90;;;;;;5021526;28;20037;-75
2022/11/14 12:33:55;;;;;;;;;;;10.90;99.90;;;;;;5001262;28;20071;-72
2022/11/14 12:36:41;;;;;;;;;;;10.90;99.90;;;;;;5006441;28;20721;-74
2022/11/14 12:39:32;;;;;;;;;;;10.90;99.90;;;;;;5007503;28;20509;-77
2022/11/14 12:42:22;;;;;;;;;;;10.90;99.90;;;;;;5008800;28;19951;-73
2022/11/14 12:45:26;;;;;;;;;;;10.90;99.90;;;;;;5011221;28;19979;-74
2022/11/14 12:48:25;;;;;;;;;;;10.90;99.90;;;;;;5010021;28;19987;-72
2022/11/14 12:51:31;;;;;;;;;;;11.00;99.90;;;;;;5007886;28;20410;-74
2022/11/14 12:54:34;;;;;;;;;;;11.10;99.90;;;;;;5004275;28;19958;-75
2022/11/14 12:57:46;;;;;;;;;;;11.20;99.90;;;;;;5008810;28;20078;-73
2022/11/14 13:00:45;;;;;;;;;;;11.30;99.90;;;;;;5010020;28;20478;-75
2022/11/14 13:03:35;;;;;;;;;;;11.40;99.90;;;;;;5007842;28;19937;-73
2022/11/14 13:06:44;;;;;;;;;;;11.50;99.90;;;;;;5024052;28;19968;-70
2022/11/14 13:09:39;;;;;;;;;;;11.60;99.90;;;;;;5012228;28;19932;-75
2022/11/14 13:22:13;;;;;;;;;;;11.70;99.90;;;;;;5012986;28;20657;-74
2022/11/14 13:24:59;;;;;;;;;;;11.60;99.90;;;;;;5011340;28;19932;-75
2022/11/14 13:27:44;;;;;;;;;;;11.60;99.90;;;;;;5024914;28;19964;-74
2022/11/14 13:30:53;;;;;;;;;;;11.60;99.90;;;;;;5025672;28;19940;-74
2022/11/14 13:33:39;;;;;;;;;;;11.60;99.90;;;;;;5024959;28;20715;-75
2022/11/14 13:36:36;;;;;;;;;;;11.50;99.90;;;;;;5024768;28;19932;-75
2022/11/14 13:39:40;;;;;;;;;;;11.40;99.90;;;;;;5013168;28;19951;-75
2022/11/14 13:42:25;;;;;;;;;;;11.30;99.90;;;;;;5013544;28;19931;-76
2022/11/14 13:45:10;;;;;;;;;;;11.30;99.90;;;;;;5022081;28;19933;-74
2022/11/14 13:48:04;;;;;;;;;;;11.30;99.90;;;;;;5008722;28;20437;-71
2022/11/14 13:50:56;;;;;;;;;;;11.20;99.90;;;;;;5022911;28;20388;-74
2022/11/14 13:53:42;;;;;;;;;;;11.30;99.90;;;;;;5016113;28;19937;-75
2022/11/14 13:56:47;;;;;;;;;;;11.20;99.90;;;;;;5016459;28;19932;-74
2022/11/14 13:59:50;;;;;;;;;;;11.10;99.90;;;;;;5006258;28;19933;-75
2022/11/14 14:02:53;;;;;;;;;;;11.10;99.90;;;;;;5009645;28;19972;-74
2022/11/14 14:05:46;;;;;;;;;;;11.00;99.90;;;;;;5004024;28;19933;-72
2022/11/14 14:08:42;;;;;;;;;;;11.00;99.90;;;;;;5007725;28;19943;-73
2022/11/14 14:11:35;;;;;;;;;;;11.00;99.90;;;;;;5008455;28;20319;-74
2022/11/14 14:14:32;;;;;;;;;;;10.90;99.90;;;;;;5005585;28;19979;-75
2022/11/14 14:17:37;;;;;;;;;;;10.90;99.90;;;;;;5005584;28;20018;-71
2022/11/14 14:20:38;;;;;;;;;;;10.80;99.90;;;;;;5008634;28;20019;-76
2022/11/14 14:23:31;;;;;;;;;;;10.80;99.90;;;;;;5005862;28;19932;-74
2022/11/14 14:26:21;;;;;;;;;;;10.90;99.90;;;;;;5019050;28;19936;-76
2022/11/14 14:29:32;;;;;;;;;;;10.90;99.90;;;;;;5005982;28;19933;-76
2022/11/14 14:32:22;;;;;;;;;;;10.90;99.90;;;;;;5003714;28;20398;-74
2022/11/14 14:35:26;;;;;;;;;;;10.80;99.90;;;;;;5016185;28;19932;-74
2022/11/14 14:38:12;;;;;;;;;;;10.80;99.90;;;;;;5003119;28;20059;-74
2022/11/14 14:41:05;;;;;;;;;;;10.70;99.90;;;;;;5007010;28;19941;-72
2022/11/14 14:43:53;;;;;;;;;;;10.70;99.90;;;;;;5004760;28;19979;-72
2022/11/14 14:46:38;;;;;;;;;;;10.60;99.90;;;;;;5021251;28;19940;-72
2022/11/14 14:49:28;;;;;;;;;;;10.60;99.90;;;;;;5020823;28;20068;-73
2022/11/14 14:52:21;;;;;;;;;;;10.60;99.90;;;;;;5021171;28;19939;-72
2022/11/14 14:55:16;;;;;;;;;;;10.60;99.90;;;;;;5001947;28;20295;-72
2022/11/14 14:58:22;;;;;;;;;;;10.60;99.90;;;;;;5002832;28;19932;-75
2022/11/14 15:01:17;;;;;;;;;;;10.60;99.90;;;;;;5019532;28;19936;-73
2022/11/14 15:04:11;;;;;;;;;;;10.60;99.90;;;;;;5015938;28;20051;-73
2022/11/14 15:06:57;;;;;;;;;;;10.60;99.90;;;;;;5003711;28;19933;-76
2022/11/14 15:09:58;;;;;;;;;;;10.50;99.90;;;;;;5008900;28;20126;-73
2022/11/14 15:12:43;;;;;;;;;;;10.40;99.90;;;;;;5005960;28;19940;-75
2022/11/14 15:15:33;;;;;;;;;;;10.30;99.90;;;;;;5004983;28;20075;-74
2022/11/14 15:18:23;;;;;;;;;;;10.30;99.90;;;;;;5003471;28;19940;-73
2022/11/14 15:21:26;;;;;;;;;;;10.20;99.90;;;;;;5021812;28;20299;-74
2022/11/14 15:24:15;;;;;;;;;;;10.10;99.90;;;;;;5017220;28;19936;-74
2022/11/14 15:27:16;;;;;;;;;;;10.00;99.90;;;;;;5004665;28;20520;-71
2022/11/14 15:30:06;;;;;;;;;;;10.00;99.90;;;;;;5003862;28;19944;-74
2022/11/14 15:32:58;;;;;;;;;;;9.90;99.90;;;;;;5001843;28;20077;-75
2022/11/14 15:36:03;;;;;;;;;;;9.90;99.90;;;;;;5002099;28;19941;-71
2022/11/14 15:39:19;;;;;;;;;;;9.80;99.90;;;;;;5006667;28;19936;-73
2022/11/14 15:42:16;;;;;;;;;;;9.70;99.90;;;;;;5006408;28;19941;-74
2022/11/14 15:45:19;;;;;;;;;;;9.60;99.90;;;;;;5018433;28;20284;-75
2022/11/14 15:48:16;;;;;;;;;;;9.50;99.90;;;;;;5003521;28;20015;-73
2022/11/14 15:51:01;;;;;;;;;;;9.50;99.90;;;;;;5005115;28;19938;-74
2022/11/14 15:53:53;;;;;;;;;;;9.40;99.90;;;;;;5007469;28;19960;-74
2022/11/14 15:56:43;;;;;;;;;;;9.30;99.90;;;;;;5002415;28;19967;-74
2022/11/14 15:59:29;;;;;;;;;;;9.20;99.90;;;;;;5006424;28;19979;-74
2022/11/14 16:02:16;;;;;;;;;;;9.10;99.90;;;;;;5004119;28;19936;-75
2022/11/14 16:05:10;;;;;;;;;;;9.10;99.90;;;;;;5014416;28;20056;-75
2022/11/14 16:07:56;;;;;;;;;;;9.00;99.90;;;;;;4998376;28;20658;-74
2022/11/14 16:10:41;;;;;;;;;;;8.90;99.90;;;;;;5004395;28;19980;-74
2022/11/14 16:13:31;;;;;;;;;;;8.90;99.90;;;;;;5016296;28;19941;-73
2022/11/14 16:16:22;;;;;;;;;;;8.80;99.90;;;;;;5003871;28;20007;-74
2022/11/14 16:19:13;;;;;;;;;;;8.70;99.90;;;;;;5000424;28;20052;-71
2022/11/14 16:22:01;;;;;;;;;;;8.70;99.90;;;;;;5018882;28;19983;-73
2022/11/14 16:24:52;;;;;;;;;;;8.70;99.90;;;;;;5016766;28;19945;-74
2022/11/14 16:27:43;;;;;;;;;;;8.70;99.90;;;;;;5000149;28;19937;-73
2022/11/14 16:30:33;;;;;;;;;;;8.70;99.90;;;;;;5016621;28;19945;-74
2022/11/14 16:33:18;;;;;;;;;;;8.70;99.90;;;;;;5005666;28;19979;-74
2022/11/14 16:36:11;;;;;;;;;;;8.70;99.90;;;;;;5002363;28;19941;-75
2022/11/14 16:39:02;;;;;;;;;;;8.70;99.90;;;;;;5005722;28;19932;-76
2022/11/14 16:41:58;;;;;;;;;;;8.70;99.90;;;;;;5002302;28;20031;-75
2022/11/14 16:44:48;;;;;;;;;;;8.80;99.90;;;;;;5001164;28;20056;-75
2022/11/14 16:47:38;;;;;;;;;;;8.70;99.90;;;;;;5000363;28;19936;-74
2022/11/14 16:50:29;;;;;;;;;;;8.60;99.90;;;;;;5000006;28;20297;-75
2022/11/14 16:53:19;;;;;;;;;;;8.50;99.90;;;;;;5002222;28;20527;-76
2022/11/14 16:56:10;;;;;;;;;;;8.50;99.90;;;;;;5016332;28;19932;-74
2022/11/14 16:59:00;;;;;;;;;;;8.40;99.90;;;;;;5004030;28;19940;-73
2022/11/14 17:01:50;;;;;;;;;;;8.40;99.90;;;;;;4999830;28;19939;-75